sensor_id;sensor_type;location;lat;lon;timestamp;P1;durP1;ratioP1;P2;durP2;ratioP2
27839;SDS011;15207;42.182;24.308;2023-05-10T00:15:33;8.90;;;4.25;;
27839;SDS011;15207;42.182;24.308;2023-05-10T00:17:59;5.53;;;4.53;;
27839;SDS011;15207;42.182;24.308;2023-05-10T00:20:25;9.10;;;4.20;;
27839;SDS011;15207;42.182;24.308;2023-05-10T00:22:51;9.20;;;4.50;;
27839;SDS011;15207;42.182;24.308;2023-05-10T00:25:17;7.68;;;4.00;;
27839;SDS011;15207;42.182;24.308;2023-05-10T00:27:42;7.32;;;3.97;;
27839;SDS011;15207;42.182;24.308;2023-05-10T00:30:08;14.83;;;5.70;;
27839;SDS011;15207;42.182;24.308;2023-05-10T00:32:34;6.70;;;4.60;;
27839;SDS011;15207;42.182;24.308;2023-05-10T00:34:59;6.70;;;4.55;;
27839;SDS011;15207;42.182;24.308;2023-05-10T00:37:25;8.00;;;4.70;;
27839;SDS011;15207;42.182;24.308;2023-05-10T00:39:51;8.00;;;4.80;;
27839;SDS011;15207;42.182;24.308;2023-05-10T00:42:16;7.47;;;5.30;;
27839;SDS011;15207;42.182;24.308;2023-05-10T00:44:42;8.50;;;4.93;;
27839;SDS011;15207;42.182;24.308;2023-05-10T00:47:08;6.20;;;4.50;;
27839;SDS011;15207;42.182;24.308;2023-05-10T00:49:34;9.18;;;5.15;;
27839;SDS011;15207;42.182;24.308;2023-05-10T00:52:00;8.47;;;5.23;;
27839;SDS011;15207;42.182;24.308;2023-05-10T00:54:27;9.30;;;4.55;;
27839;SDS011;15207;42.182;24.308;2023-05-10T00:56:52;8.40;;;4.90;;
27839;SDS011;15207;42.182;24.308;2023-05-10T00:59:18;10.80;;;5.00;;
27839;SDS011;15207;42.182;24.308;2023-05-10T01:01:45;7.70;;;4.60;;
27839;SDS011;15207;42.182;24.308;2023-05-10T01:04:14;9.35;;;5.60;;
27839;SDS011;15207;42.182;24.308;2023-05-10T01:06:40;9.90;;;5.70;;
27839;SDS011;15207;42.182;24.308;2023-05-10T01:09:07;10.50;;;5.17;;
27839;SDS011;15207;42.182;24.308;2023-05-10T01:11:33;9.75;;;4.80;;
27839;SDS011;15207;42.182;24.308;2023-05-10T01:14:00;9.30;;;4.50;;
27839;SDS011;15207;42.182;24.308;2023-05-10T01:16:27;13.00;;;6.20;;
27839;SDS011;15207;42.182;24.308;2023-05-10T01:18:56;9.70;;;5.50;;
27839;SDS011;15207;42.182;24.308;2023-05-10T01:26:40;8.60;;;5.10;;
27839;SDS011;15207;42.182;24.308;2023-05-10T01:37:25;13.35;;;5.20;;
27839;SDS011;15207;42.182;24.308;2023-05-10T01:40:00;8.68;;;5.00;;
27839;SDS011;15207;42.182;24.308;2023-05-10T01:42:37;6.85;;;4.70;;
27839;SDS011;15207;42.182;24.308;2023-05-10T01:45:18;9.05;;;4.43;;
27839;SDS011;15207;42.182;24.308;2023-05-10T01:47:53;5.25;;;4.15;;
27839;SDS011;15207;42.182;24.308;2023-05-10T01:50:28;10.45;;;4.75;;
27839;SDS011;15207;42.182;24.308;2023-05-10T01:52:57;6.45;;;4.40;;
27839;SDS011;15207;42.182;24.308;2023-05-10T01:55:28;9.65;;;4.35;;
27839;SDS011;15207;42.182;24.308;2023-05-10T01:58:00;6.60;;;4.45;;
27839;SDS011;15207;42.182;24.308;2023-05-10T02:00:30;8.30;;;4.30;;
27839;SDS011;15207;42.182;24.308;2023-05-10T02:02:56;7.75;;;4.85;;
27839;SDS011;15207;42.182;24.308;2023-05-10T02:05:22;10.60;;;4.40;;
27839;SDS011;15207;42.182;24.308;2023-05-10T02:07:50;8.55;;;4.50;;
27839;SDS011;15207;42.182;24.308;2023-05-10T02:10:17;7.75;;;4.85;;
27839;SDS011;15207;42.182;24.308;2023-05-10T02:12:45;7.50;;;4.80;;
27839;SDS011;15207;42.182;24.308;2023-05-10T02:15:12;8.57;;;5.00;;
27839;SDS011;15207;42.182;24.308;2023-05-10T02:17:43;7.30;;;4.80;;
27839;SDS011;15207;42.182;24.308;2023-05-10T02:20:11;9.90;;;6.00;;
27839;SDS011;15207;42.182;24.308;2023-05-10T02:22:39;10.40;;;5.50;;
27839;SDS011;15207;42.182;24.308;2023-05-10T02:25:06;10.95;;;5.90;;
27839;SDS011;15207;42.182;24.308;2023-05-10T02:27:35;7.40;;;5.20;;
27839;SDS011;15207;42.182;24.308;2023-05-10T02:30:02;9.00;;;4.77;;
27839;SDS011;15207;42.182;24.308;2023-05-10T02:32:30;7.60;;;5.30;;
27839;SDS011;15207;42.182;24.308;2023-05-10T02:34:56;10.00;;;5.50;;
27839;SDS011;15207;42.182;24.308;2023-05-10T02:37:23;8.00;;;5.65;;
27839;SDS011;15207;42.182;24.308;2023-05-10T02:42:22;8.90;;;5.75;;
27839;SDS011;15207;42.182;24.308;2023-05-10T02:44:53;7.00;;;5.00;;
27839;SDS011;15207;42.182;24.308;2023-05-10T02:47:21;9.15;;;5.15;;
27839;SDS011;15207;42.182;24.308;2023-05-10T02:49:47;9.73;;;5.37;;
27839;SDS011;15207;42.182;24.308;2023-05-10T02:52:14;9.45;;;5.15;;
27839;SDS011;15207;42.182;24.308;2023-05-10T02:54:45;9.05;;;5.50;;
27839;SDS011;15207;42.182;24.308;2023-05-10T02:57:15;9.50;;;5.55;;
27839;SDS011;15207;42.182;24.308;2023-05-10T02:59:45;7.60;;;5.60;;
27839;SDS011;15207;42.182;24.308;2023-05-10T03:02:14;11.90;;;5.20;;
27839;SDS011;15207;42.182;24.308;2023-05-10T03:04:40;8.40;;;5.00;;
27839;SDS011;15207;42.182;24.308;2023-05-10T03:07:05;12.90;;;6.40;;
27839;SDS011;15207;42.182;24.308;2023-05-10T03:09:32;12.50;;;5.50;;
27839;SDS011;15207;42.182;24.308;2023-05-10T03:12:15;9.50;;;6.00;;
27839;SDS011;15207;42.182;24.308;2023-05-10T03:15:03;8.20;;;5.20;;
27839;SDS011;15207;42.182;24.308;2023-05-10T03:20:50;10.10;;;5.30;;
27839;SDS011;15207;42.182;24.308;2023-05-10T03:23:26;12.40;;;4.85;;
27839;SDS011;15207;42.182;24.308;2023-05-10T03:25:55;9.50;;;4.40;;
27839;SDS011;15207;42.182;24.308;2023-05-10T03:28:22;8.57;;;5.60;;
27839;SDS011;15207;42.182;24.308;2023-05-10T03:30:52;8.55;;;4.80;;
27839;SDS011;15207;42.182;24.308;2023-05-10T03:33:19;11.20;;;5.60;;
27839;SDS011;15207;42.182;24.308;2023-05-10T03:35:45;9.40;;;5.40;;
27839;SDS011;15207;42.182;24.308;2023-05-10T03:38:13;9.80;;;5.88;;
27839;SDS011;15207;42.182;24.308;2023-05-10T03:40:39;8.40;;;5.20;;
27839;SDS011;15207;42.182;24.308;2023-05-10T03:50:23;10.20;;;5.70;;
27839;SDS011;15207;42.182;24.308;2023-05-10T03:52:49;7.85;;;5.10;;
27839;SDS011;15207;42.182;24.308;2023-05-10T03:55:16;10.70;;;6.00;;
27839;SDS011;15207;42.182;24.308;2023-05-10T03:57:42;13.25;;;5.80;;
27839;SDS011;15207;42.182;24.308;2023-05-10T04:00:07;9.20;;;5.60;;
27839;SDS011;15207;42.182;24.308;2023-05-10T04:02:34;10.00;;;5.43;;
27839;SDS011;15207;42.182;24.308;2023-05-10T04:05:01;13.90;;;5.40;;
27839;SDS011;15207;42.182;24.308;2023-05-10T04:07:27;8.60;;;5.80;;
27839;SDS011;15207;42.182;24.308;2023-05-10T04:09:53;9.25;;;5.80;;
27839;SDS011;15207;42.182;24.308;2023-05-10T04:12:18;7.65;;;5.25;;
27839;SDS011;15207;42.182;24.308;2023-05-10T04:14:44;9.20;;;5.20;;
27839;SDS011;15207;42.182;24.308;2023-05-10T04:17:10;8.05;;;5.75;;
27839;SDS011;15207;42.182;24.308;2023-05-10T04:19:36;9.40;;;6.00;;
27839;SDS011;15207;42.182;24.308;2023-05-10T04:22:02;10.15;;;6.10;;
27839;SDS011;15207;42.182;24.308;2023-05-10T04:24:28;9.80;;;5.80;;
27839;SDS011;15207;42.182;24.308;2023-05-10T04:26:54;10.85;;;5.70;;
27839;SDS011;15207;42.182;24.308;2023-05-10T04:29:20;11.30;;;6.10;;
27839;SDS011;15207;42.182;24.308;2023-05-10T04:31:46;10.10;;;5.50;;
27839;SDS011;15207;42.182;24.308;2023-05-10T04:34:12;7.85;;;5.40;;
27839;SDS011;15207;42.182;24.308;2023-05-10T04:36:37;8.90;;;5.70;;
27839;SDS011;15207;42.182;24.308;2023-05-10T04:39:03;9.30;;;6.00;;
27839;SDS011;15207;42.182;24.308;2023-05-10T04:41:29;11.35;;;6.05;;
27839;SDS011;15207;42.182;24.308;2023-05-10T04:43:55;10.50;;;6.10;;
27839;SDS011;15207;42.182;24.308;2023-05-10T04:46:21;9.80;;;5.80;;
27839;SDS011;15207;42.182;24.308;2023-05-10T04:48:46;12.32;;;5.90;;
27839;SDS011;15207;42.182;24.308;2023-05-10T04:51:12;9.60;;;6.00;;
27839;SDS011;15207;42.182;24.308;2023-05-10T04:53:38;10.20;;;6.50;;
27839;SDS011;15207;42.182;24.308;2023-05-10T04:56:04;10.50;;;6.30;;
27839;SDS011;15207;42.182;24.308;2023-05-10T04:58:30;9.80;;;6.40;;
27839;SDS011;15207;42.182;24.308;2023-05-10T05:00:56;10.15;;;5.65;;
27839;SDS011;15207;42.182;24.308;2023-05-10T05:03:21;8.63;;;5.38;;
27839;SDS011;15207;42.182;24.308;2023-05-10T05:05:47;9.35;;;6.00;;
27839;SDS011;15207;42.182;24.308;2023-05-10T05:08:13;8.70;;;5.43;;
27839;SDS011;15207;42.182;24.308;2023-05-10T05:10:38;9.30;;;5.90;;
27839;SDS011;15207;42.182;24.308;2023-05-10T05:13:05;10.27;;;5.78;;
27839;SDS011;15207;42.182;24.308;2023-05-10T05:15:31;12.02;;;5.78;;
27839;SDS011;15207;42.182;24.308;2023-05-10T05:17:56;9.55;;;6.10;;
27839;SDS011;15207;42.182;24.308;2023-05-10T05:20:22;8.70;;;5.85;;
27839;SDS011;15207;42.182;24.308;2023-05-10T05:22:49;11.10;;;5.57;;
27839;SDS011;15207;42.182;24.308;2023-05-10T05:25:15;10.20;;;5.75;;
27839;SDS011;15207;42.182;24.308;2023-05-10T05:27:42;11.10;;;6.10;;
27839;SDS011;15207;42.182;24.308;2023-05-10T05:30:08;10.43;;;6.17;;
27839;SDS011;15207;42.182;24.308;2023-05-10T05:32:38;9.00;;;6.50;;
27839;SDS011;15207;42.182;24.308;2023-05-10T05:35:05;13.70;;;6.40;;
27839;SDS011;15207;42.182;24.308;2023-05-10T05:37:31;10.00;;;6.00;;
27839;SDS011;15207;42.182;24.308;2023-05-10T05:39:57;12.43;;;6.70;;
27839;SDS011;15207;42.182;24.308;2023-05-10T05:42:25;10.85;;;6.28;;
27839;SDS011;15207;42.182;24.308;2023-05-10T05:44:51;8.95;;;5.75;;
27839;SDS011;15207;42.182;24.308;2023-05-10T05:47:18;13.20;;;8.00;;
27839;SDS011;15207;42.182;24.308;2023-05-10T05:49:44;16.45;;;8.60;;
27839;SDS011;15207;42.182;24.308;2023-05-10T05:52:13;12.48;;;8.25;;
27839;SDS011;15207;42.182;24.308;2023-05-10T05:54:40;11.00;;;7.55;;
27839;SDS011;15207;42.182;24.308;2023-05-10T05:57:05;14.90;;;8.30;;
27839;SDS011;15207;42.182;24.308;2023-05-10T05:59:33;14.93;;;8.43;;
27839;SDS011;15207;42.182;24.308;2023-05-10T06:02:00;12.88;;;7.38;;
27839;SDS011;15207;42.182;24.308;2023-05-10T06:04:28;13.35;;;8.30;;
27839;SDS011;15207;42.182;24.308;2023-05-10T06:07:01;15.20;;;8.70;;
27839;SDS011;15207;42.182;24.308;2023-05-10T06:09:27;15.53;;;7.73;;
27839;SDS011;15207;42.182;24.308;2023-05-10T06:11:54;13.30;;;8.02;;
27839;SDS011;15207;42.182;24.308;2023-05-10T06:14:22;18.08;;;8.38;;
27839;SDS011;15207;42.182;24.308;2023-05-10T06:16:49;15.93;;;8.90;;
27839;SDS011;15207;42.182;24.308;2023-05-10T06:19:15;12.50;;;7.75;;
27839;SDS011;15207;42.182;24.308;2023-05-10T06:21:42;14.52;;;7.90;;
27839;SDS011;15207;42.182;24.308;2023-05-10T06:24:09;16.40;;;8.70;;
27839;SDS011;15207;42.182;24.308;2023-05-10T06:26:35;12.75;;;7.30;;
27839;SDS011;15207;42.182;24.308;2023-05-10T06:29:01;12.63;;;6.93;;
27839;SDS011;15207;42.182;24.308;2023-05-10T06:31:27;14.30;;;8.60;;
27839;SDS011;15207;42.182;24.308;2023-05-10T06:33:53;14.25;;;8.60;;
27839;SDS011;15207;42.182;24.308;2023-05-10T06:36:21;12.15;;;7.85;;
27839;SDS011;15207;42.182;24.308;2023-05-10T06:38:47;15.95;;;7.78;;
27839;SDS011;15207;42.182;24.308;2023-05-10T06:41:12;14.25;;;6.80;;
27839;SDS011;15207;42.182;24.308;2023-05-10T06:43:38;17.05;;;7.05;;
27839;SDS011;15207;42.182;24.308;2023-05-10T06:46:06;12.65;;;7.90;;
27839;SDS011;15207;42.182;24.308;2023-05-10T06:48:33;12.70;;;6.85;;
27839;SDS011;15207;42.182;24.308;2023-05-10T06:51:01;12.90;;;7.40;;
27839;SDS011;15207;42.182;24.308;2023-05-10T06:53:27;13.70;;;7.55;;
27839;SDS011;15207;42.182;24.308;2023-05-10T06:55:52;15.30;;;7.95;;
27839;SDS011;15207;42.182;24.308;2023-05-10T06:58:20;13.20;;;7.60;;
27839;SDS011;15207;42.182;24.308;2023-05-10T07:00:46;13.90;;;7.60;;
27839;SDS011;15207;42.182;24.308;2023-05-10T07:03:12;15.20;;;8.50;;
27839;SDS011;15207;42.182;24.308;2023-05-10T07:05:37;16.80;;;8.50;;
27839;SDS011;15207;42.182;24.308;2023-05-10T07:08:03;12.95;;;7.65;;
27839;SDS011;15207;42.182;24.308;2023-05-10T07:10:30;13.05;;;7.30;;
27839;SDS011;15207;42.182;24.308;2023-05-10T07:12:56;15.90;;;7.30;;
27839;SDS011;15207;42.182;24.308;2023-05-10T07:15:22;12.70;;;7.15;;
27839;SDS011;15207;42.182;24.308;2023-05-10T07:17:49;14.75;;;7.70;;
27839;SDS011;15207;42.182;24.308;2023-05-10T07:20:16;18.80;;;8.53;;
27839;SDS011;15207;42.182;24.308;2023-05-10T07:22:42;13.35;;;7.13;;
27839;SDS011;15207;42.182;24.308;2023-05-10T07:25:08;14.35;;;7.35;;
27839;SDS011;15207;42.182;24.308;2023-05-10T07:27:34;11.77;;;5.93;;
27839;SDS011;15207;42.182;24.308;2023-05-10T07:30:00;16.75;;;6.80;;
27839;SDS011;15207;42.182;24.308;2023-05-10T07:32:26;12.40;;;6.40;;
27839;SDS011;15207;42.182;24.308;2023-05-10T07:34:52;12.95;;;6.30;;
27839;SDS011;15207;42.182;24.308;2023-05-10T07:37:17;11.80;;;5.90;;
27839;SDS011;15207;42.182;24.308;2023-05-10T07:39:43;8.75;;;5.70;;
27839;SDS011;15207;42.182;24.308;2023-05-10T07:42:09;11.10;;;6.07;;
27839;SDS011;15207;42.182;24.308;2023-05-10T07:44:35;9.85;;;6.07;;
27839;SDS011;15207;42.182;24.308;2023-05-10T07:47:01;10.20;;;5.70;;
27839;SDS011;15207;42.182;24.308;2023-05-10T07:49:26;13.25;;;5.85;;
27839;SDS011;15207;42.182;24.308;2023-05-10T07:51:52;9.50;;;6.10;;
27839;SDS011;15207;42.182;24.308;2023-05-10T07:54:17;10.77;;;4.93;;
27839;SDS011;15207;42.182;24.308;2023-05-10T07:56:43;10.20;;;5.70;;
27839;SDS011;15207;42.182;24.308;2023-05-10T07:59:15;8.10;;;5.10;;
27839;SDS011;15207;42.182;24.308;2023-05-10T08:01:42;6.13;;;5.00;;
27839;SDS011;15207;42.182;24.308;2023-05-10T08:04:08;9.50;;;5.10;;
27839;SDS011;15207;42.182;24.308;2023-05-10T08:06:34;9.90;;;5.90;;
27839;SDS011;15207;42.182;24.308;2023-05-10T08:09:00;12.45;;;5.72;;
27839;SDS011;15207;42.182;24.308;2023-05-10T08:11:25;11.00;;;5.70;;
27839;SDS011;15207;42.182;24.308;2023-05-10T08:13:53;16.15;;;6.55;;
27839;SDS011;15207;42.182;24.308;2023-05-10T08:16:19;8.37;;;5.33;;
27839;SDS011;15207;42.182;24.308;2023-05-10T08:18:45;10.50;;;5.30;;
27839;SDS011;15207;42.182;24.308;2023-05-10T08:21:13;8.15;;;5.20;;
27839;SDS011;15207;42.182;24.308;2023-05-10T08:23:40;9.00;;;4.60;;
27839;SDS011;15207;42.182;24.308;2023-05-10T08:26:06;8.20;;;5.05;;
27839;SDS011;15207;42.182;24.308;2023-05-10T08:28:32;8.50;;;5.00;;
27839;SDS011;15207;42.182;24.308;2023-05-10T08:30:58;9.90;;;5.25;;
27839;SDS011;15207;42.182;24.308;2023-05-10T08:33:24;10.20;;;5.60;;
27839;SDS011;15207;42.182;24.308;2023-05-10T08:35:50;6.90;;;4.80;;
27839;SDS011;15207;42.182;24.308;2023-05-10T08:38:15;10.00;;;5.77;;
27839;SDS011;15207;42.182;24.308;2023-05-10T08:40:41;9.20;;;4.80;;
27839;SDS011;15207;42.182;24.308;2023-05-10T08:43:09;9.10;;;5.07;;
27839;SDS011;15207;42.182;24.308;2023-05-10T08:45:37;7.70;;;4.90;;
27839;SDS011;15207;42.182;24.308;2023-05-10T08:48:04;7.30;;;4.60;;
27839;SDS011;15207;42.182;24.308;2023-05-10T08:50:31;11.38;;;5.65;;
27839;SDS011;15207;42.182;24.308;2023-05-10T08:53:04;7.80;;;5.20;;
27839;SDS011;15207;42.182;24.308;2023-05-10T08:55:40;7.25;;;5.25;;
27839;SDS011;15207;42.182;24.308;2023-05-10T08:58:08;10.75;;;4.75;;
27839;SDS011;15207;42.182;24.308;2023-05-10T09:00:35;12.40;;;5.10;;
27839;SDS011;15207;42.182;24.308;2023-05-10T09:03:02;12.53;;;4.97;;
27839;SDS011;15207;42.182;24.308;2023-05-10T09:05:28;8.97;;;4.90;;
27839;SDS011;15207;42.182;24.308;2023-05-10T09:07:54;7.20;;;4.90;;
27839;SDS011;15207;42.182;24.308;2023-05-10T09:10:20;9.40;;;5.05;;
27839;SDS011;15207;42.182;24.308;2023-05-10T09:12:47;7.30;;;5.10;;
27839;SDS011;15207;42.182;24.308;2023-05-10T09:15:17;8.60;;;4.43;;
27839;SDS011;15207;42.182;24.308;2023-05-10T09:17:44;7.50;;;4.90;;
27839;SDS011;15207;42.182;24.308;2023-05-10T09:20:11;10.90;;;5.38;;
27839;SDS011;15207;42.182;24.308;2023-05-10T09:22:36;7.90;;;4.82;;
27839;SDS011;15207;42.182;24.308;2023-05-10T09:25:05;8.75;;;4.90;;
27839;SDS011;15207;42.182;24.308;2023-05-10T09:27:33;9.00;;;5.00;;
27839;SDS011;15207;42.182;24.308;2023-05-10T09:32:40;7.63;;;5.20;;
27839;SDS011;15207;42.182;24.308;2023-05-10T09:37:33;6.60;;;4.05;;
27839;SDS011;15207;42.182;24.308;2023-05-10T09:39:59;9.00;;;4.80;;
27839;SDS011;15207;42.182;24.308;2023-05-10T09:42:29;8.95;;;4.75;;
27839;SDS011;15207;42.182;24.308;2023-05-10T09:44:59;10.40;;;5.40;;
27839;SDS011;15207;42.182;24.308;2023-05-10T09:47:28;7.15;;;4.40;;
27839;SDS011;15207;42.182;24.308;2023-05-10T09:52:27;7.75;;;4.68;;
27839;SDS011;15207;42.182;24.308;2023-05-10T09:54:54;8.83;;;5.07;;
27839;SDS011;15207;42.182;24.308;2023-05-10T09:57:20;5.75;;;3.95;;
27839;SDS011;15207;42.182;24.308;2023-05-10T09:59:47;8.75;;;5.20;;
27839;SDS011;15207;42.182;24.308;2023-05-10T10:02:12;11.50;;;4.95;;
27839;SDS011;15207;42.182;24.308;2023-05-10T10:04:42;6.50;;;4.50;;
27839;SDS011;15207;42.182;24.308;2023-05-10T10:07:08;6.30;;;4.57;;
27839;SDS011;15207;42.182;24.308;2023-05-10T10:09:34;10.03;;;5.33;;
27839;SDS011;15207;42.182;24.308;2023-05-10T10:12:00;8.13;;;5.65;;
27839;SDS011;15207;42.182;24.308;2023-05-10T10:14:27;7.03;;;4.60;;
27839;SDS011;15207;42.182;24.308;2023-05-10T10:16:53;7.30;;;4.67;;
27839;SDS011;15207;42.182;24.308;2023-05-10T10:19:19;9.00;;;5.10;;
27839;SDS011;15207;42.182;24.308;2023-05-10T10:21:46;8.10;;;4.70;;
27839;SDS011;15207;42.182;24.308;2023-05-10T10:24:12;6.60;;;4.10;;
27839;SDS011;15207;42.182;24.308;2023-05-10T10:26:37;9.90;;;4.80;;
27839;SDS011;15207;42.182;24.308;2023-05-10T10:31:49;6.80;;;4.65;;
27839;SDS011;15207;42.182;24.308;2023-05-10T10:34:27;5.30;;;3.90;;
27839;SDS011;15207;42.182;24.308;2023-05-10T10:36:55;12.77;;;4.65;;
27839;SDS011;15207;42.182;24.308;2023-05-10T10:39:21;5.80;;;4.20;;
27839;SDS011;15207;42.182;24.308;2023-05-10T10:47:21;4.20;;;3.50;;
27839;SDS011;15207;42.182;24.308;2023-05-10T10:57:26;5.20;;;3.60;;
27839;SDS011;15207;42.182;24.308;2023-05-10T11:02:49;11.45;;;4.50;;
27839;SDS011;15207;42.182;24.308;2023-05-10T11:07:51;6.18;;;4.45;;
27839;SDS011;15207;42.182;24.308;2023-05-10T11:13:02;6.80;;;4.40;;
27839;SDS011;15207;42.182;24.308;2023-05-10T11:21:00;6.18;;;4.00;;
27839;SDS011;15207;42.182;24.308;2023-05-10T11:26:12;5.90;;;4.20;;
27839;SDS011;15207;42.182;24.308;2023-05-10T11:28:41;5.95;;;4.00;;
27839;SDS011;15207;42.182;24.308;2023-05-10T11:31:13;7.45;;;4.55;;
27839;SDS011;15207;42.182;24.308;2023-05-10T11:33:46;4.57;;;3.83;;
27839;SDS011;15207;42.182;24.308;2023-05-10T11:36:17;5.38;;;4.00;;
27839;SDS011;15207;42.182;24.308;2023-05-10T11:38:47;5.25;;;3.85;;
27839;SDS011;15207;42.182;24.308;2023-05-10T11:41:15;6.45;;;4.25;;
27839;SDS011;15207;42.182;24.308;2023-05-10T11:43:43;13.40;;;4.90;;
27839;SDS011;15207;42.182;24.308;2023-05-10T11:46:12;5.32;;;3.95;;
27839;SDS011;15207;42.182;24.308;2023-05-10T11:48:39;7.50;;;4.80;;
27839;SDS011;15207;42.182;24.308;2023-05-10T11:51:08;6.40;;;4.10;;
27839;SDS011;15207;42.182;24.308;2023-05-10T11:53:35;5.15;;;4.00;;
27839;SDS011;15207;42.182;24.308;2023-05-10T11:56:04;6.00;;;4.10;;
27839;SDS011;15207;42.182;24.308;2023-05-10T11:58:32;5.07;;;3.90;;
27839;SDS011;15207;42.182;24.308;2023-05-10T12:00:59;9.40;;;4.80;;
27839;SDS011;15207;42.182;24.308;2023-05-10T12:08:20;5.32;;;3.80;;
27839;SDS011;15207;42.182;24.308;2023-05-10T12:11:05;5.13;;;4.07;;
27839;SDS011;15207;42.182;24.308;2023-05-10T12:13:36;5.68;;;4.00;;
27839;SDS011;15207;42.182;24.308;2023-05-10T12:16:12;12.65;;;5.35;;
27839;SDS011;15207;42.182;24.308;2023-05-10T12:18:40;8.95;;;5.35;;
27839;SDS011;15207;42.182;24.308;2023-05-10T12:23:31;6.70;;;5.10;;
27839;SDS011;15207;42.182;24.308;2023-05-10T12:26:04;6.93;;;5.05;;
27839;SDS011;15207;42.182;24.308;2023-05-10T12:28:30;8.27;;;5.30;;
27839;SDS011;15207;42.182;24.308;2023-05-10T12:31:01;7.57;;;5.15;;
27839;SDS011;15207;42.182;24.308;2023-05-10T12:33:27;9.00;;;5.20;;
27839;SDS011;15207;42.182;24.308;2023-05-10T12:36:01;6.47;;;5.23;;
27839;SDS011;15207;42.182;24.308;2023-05-10T12:38:28;12.23;;;5.20;;
27839;SDS011;15207;42.182;24.308;2023-05-10T12:41:00;6.90;;;5.00;;
27839;SDS011;15207;42.182;24.308;2023-05-10T12:43:29;9.20;;;4.70;;
27839;SDS011;15207;42.182;24.308;2023-05-10T12:45:55;7.90;;;5.00;;
27839;SDS011;15207;42.182;24.308;2023-05-10T12:48:21;7.60;;;5.03;;
27839;SDS011;15207;42.182;24.308;2023-05-10T12:50:47;8.10;;;5.00;;
27839;SDS011;15207;42.182;24.308;2023-05-10T12:53:13;6.00;;;4.60;;
27839;SDS011;15207;42.182;24.308;2023-05-10T12:55:43;8.20;;;4.97;;
27839;SDS011;15207;42.182;24.308;2023-05-10T12:58:09;9.25;;;5.75;;
27839;SDS011;15207;42.182;24.308;2023-05-10T13:00:34;11.77;;;5.60;;
27839;SDS011;15207;42.182;24.308;2023-05-10T13:03:00;6.40;;;4.60;;
27839;SDS011;15207;42.182;24.308;2023-05-10T13:05:26;6.00;;;4.77;;
27839;SDS011;15207;42.182;24.308;2023-05-10T13:07:54;5.50;;;4.80;;
27839;SDS011;15207;42.182;24.308;2023-05-10T13:10:20;7.37;;;5.00;;
27839;SDS011;15207;42.182;24.308;2023-05-10T13:12:47;7.70;;;5.20;;
27839;SDS011;15207;42.182;24.308;2023-05-10T13:15:13;8.00;;;5.25;;
27839;SDS011;15207;42.182;24.308;2023-05-10T13:17:38;9.53;;;5.10;;
27839;SDS011;15207;42.182;24.308;2023-05-10T13:20:05;7.40;;;5.65;;
27839;SDS011;15207;42.182;24.308;2023-05-10T13:22:31;8.95;;;5.03;;
27839;SDS011;15207;42.182;24.308;2023-05-10T13:24:57;6.40;;;5.10;;
27839;SDS011;15207;42.182;24.308;2023-05-10T13:27:22;6.80;;;5.22;;
27839;SDS011;15207;42.182;24.308;2023-05-10T13:29:48;8.65;;;5.30;;
27839;SDS011;15207;42.182;24.308;2023-05-10T13:32:13;8.77;;;5.18;;
27839;SDS011;15207;42.182;24.308;2023-05-10T13:34:39;6.40;;;4.53;;
27839;SDS011;15207;42.182;24.308;2023-05-10T13:37:05;7.38;;;5.18;;
27839;SDS011;15207;42.182;24.308;2023-05-10T13:39:31;7.90;;;5.40;;
27839;SDS011;15207;42.182;24.308;2023-05-10T13:41:59;9.85;;;5.80;;
27839;SDS011;15207;42.182;24.308;2023-05-10T13:44:25;7.10;;;4.50;;
27839;SDS011;15207;42.182;24.308;2023-05-10T13:46:50;8.07;;;5.32;;
27839;SDS011;15207;42.182;24.308;2023-05-10T13:49:16;10.30;;;6.00;;
27839;SDS011;15207;42.182;24.308;2023-05-10T13:51:42;8.35;;;5.35;;
27839;SDS011;15207;42.182;24.308;2023-05-10T13:54:08;8.65;;;5.55;;
27839;SDS011;15207;42.182;24.308;2023-05-10T14:01:31;8.50;;;5.30;;
27839;SDS011;15207;42.182;24.308;2023-05-10T14:06:22;9.23;;;5.90;;
27839;SDS011;15207;42.182;24.308;2023-05-10T14:08:47;11.73;;;5.20;;
27839;SDS011;15207;42.182;24.308;2023-05-10T14:11:13;7.95;;;5.30;;
27839;SDS011;15207;42.182;24.308;2023-05-10T14:13:39;5.90;;;4.80;;
27839;SDS011;15207;42.182;24.308;2023-05-10T14:16:05;8.80;;;5.50;;
27839;SDS011;15207;42.182;24.308;2023-05-10T14:18:30;6.22;;;4.32;;
27839;SDS011;15207;42.182;24.308;2023-05-10T14:20:56;8.45;;;5.20;;
27839;SDS011;15207;42.182;24.308;2023-05-10T14:23:22;6.97;;;5.07;;
27839;SDS011;15207;42.182;24.308;2023-05-10T14:25:51;6.40;;;4.70;;
27839;SDS011;15207;42.182;24.308;2023-05-10T14:28:17;7.30;;;4.70;;
27839;SDS011;15207;42.182;24.308;2023-05-10T14:30:43;8.43;;;5.10;;
27839;SDS011;15207;42.182;24.308;2023-05-10T14:33:09;8.18;;;5.15;;
27839;SDS011;15207;42.182;24.308;2023-05-10T14:35:35;6.90;;;5.50;;
27839;SDS011;15207;42.182;24.308;2023-05-10T14:38:01;9.10;;;5.60;;
27839;SDS011;15207;42.182;24.308;2023-05-10T14:40:28;7.50;;;5.90;;
27839;SDS011;15207;42.182;24.308;2023-05-10T14:42:54;7.07;;;4.83;;
27839;SDS011;15207;42.182;24.308;2023-05-10T14:45:21;6.15;;;4.80;;
27839;SDS011;15207;42.182;24.308;2023-05-10T14:47:47;7.70;;;5.50;;
27839;SDS011;15207;42.182;24.308;2023-05-10T14:50:13;10.10;;;5.57;;
27839;SDS011;15207;42.182;24.308;2023-05-10T14:56:00;12.10;;;5.40;;
27839;SDS011;15207;42.182;24.308;2023-05-10T14:58:28;6.50;;;5.05;;
27839;SDS011;15207;42.182;24.308;2023-05-10T15:00:55;7.25;;;4.95;;
27839;SDS011;15207;42.182;24.308;2023-05-10T15:03:21;6.38;;;5.05;;
27839;SDS011;15207;42.182;24.308;2023-05-10T15:05:47;9.07;;;5.73;;
27839;SDS011;15207;42.182;24.308;2023-05-10T15:08:13;8.57;;;5.55;;
27839;SDS011;15207;42.182;24.308;2023-05-10T15:10:38;7.60;;;5.40;;
27839;SDS011;15207;42.182;24.308;2023-05-10T15:13:04;6.60;;;5.25;;
27839;SDS011;15207;42.182;24.308;2023-05-10T15:15:30;7.32;;;5.40;;
27839;SDS011;15207;42.182;24.308;2023-05-10T15:17:56;6.53;;;4.95;;
27839;SDS011;15207;42.182;24.308;2023-05-10T15:20:21;11.80;;;4.90;;
27839;SDS011;15207;42.182;24.308;2023-05-10T15:25:13;7.05;;;4.90;;
27839;SDS011;15207;42.182;24.308;2023-05-10T15:27:40;5.90;;;4.80;;
27839;SDS011;15207;42.182;24.308;2023-05-10T15:30:06;8.38;;;4.82;;
27839;SDS011;15207;42.182;24.308;2023-05-10T15:32:32;6.60;;;4.40;;
27839;SDS011;15207;42.182;24.308;2023-05-10T15:34:58;8.30;;;5.40;;
27839;SDS011;15207;42.182;24.308;2023-05-10T15:37:23;8.27;;;5.30;;
27839;SDS011;15207;42.182;24.308;2023-05-10T15:39:49;7.60;;;5.07;;
27839;SDS011;15207;42.182;24.308;2023-05-10T15:42:15;7.55;;;5.40;;
27839;SDS011;15207;42.182;24.308;2023-05-10T15:44:41;7.00;;;5.00;;
27839;SDS011;15207;42.182;24.308;2023-05-10T15:47:08;6.90;;;5.55;;
27839;SDS011;15207;42.182;24.308;2023-05-10T15:51:59;9.25;;;5.30;;
27839;SDS011;15207;42.182;24.308;2023-05-10T15:54:25;8.05;;;5.50;;
27839;SDS011;15207;42.182;24.308;2023-05-10T15:56:51;8.80;;;5.60;;
27839;SDS011;15207;42.182;24.308;2023-05-10T15:59:18;10.18;;;6.45;;
27839;SDS011;15207;42.182;24.308;2023-05-10T16:01:44;8.90;;;6.40;;
27839;SDS011;15207;42.182;24.308;2023-05-10T16:04:10;11.77;;;6.18;;
27839;SDS011;15207;42.182;24.308;2023-05-10T16:06:36;9.70;;;6.33;;
27839;SDS011;15207;42.182;24.308;2023-05-10T16:09:02;12.80;;;7.00;;
27839;SDS011;15207;42.182;24.308;2023-05-10T16:11:27;10.40;;;7.10;;
27839;SDS011;15207;42.182;24.308;2023-05-10T16:13:53;12.10;;;6.20;;